createdAt,value
2022-10-16T00:01:23.202Z,16.76
2022-10-16T00:03:51.025Z,16.54
2022-10-16T00:06:20.818Z,16.71
2022-10-16T00:08:50.552Z,16.76
2022-10-16T00:11:20.393Z,16.88
2022-10-16T00:13:51.615Z,16.69
2022-10-16T00:16:19.899Z,16.85
2022-10-16T00:18:47.423Z,16.98
2022-10-16T00:21:16.916Z,16.98
2022-10-16T00:23:44.600Z,17.16
2022-10-16T00:26:16.028Z,17.46
2022-10-16T00:28:43.823Z,17.54
2022-10-16T00:31:13.823Z,17.68
2022-10-16T00:33:42.189Z,17.38
2022-10-16T00:36:12.994Z,17.51
2022-10-16T00:38:40.892Z,17.47
2022-10-16T00:41:09.327Z,17.27
2022-10-16T00:43:42.634Z,17.19
2022-10-16T00:46:17.463Z,17.36
2022-10-16T00:48:50.277Z,17.53
2022-10-16T00:51:21.262Z,17.60
2022-10-16T00:53:49.315Z,17.45
2022-10-16T00:56:17.012Z,17.50
2022-10-16T00:58:46.135Z,17.64
2022-10-16T01:01:13.977Z,17.80
2022-10-16T01:03:41.814Z,17.83
2022-10-16T01:06:20.775Z,17.76
2022-10-16T01:09:00.272Z,17.78
2022-10-16T01:11:35.730Z,17.51
2022-10-16T01:14:13.292Z,17.16
2022-10-16T01:16:45.712Z,16.71
2022-10-16T01:19:19.125Z,16.73
2022-10-16T01:21:49.997Z,16.63
2022-10-16T01:24:27.196Z,16.72
2022-10-16T01:27:09.432Z,16.92
2022-10-16T01:29:42.959Z,16.95
2022-10-16T01:32:16.833Z,17.01
2022-10-16T01:34:51.422Z,17.16
2022-10-16T01:37:29.449Z,17.23
2022-10-16T01:40:01.066Z,17.22
2022-10-16T01:42:36.300Z,17.45
2022-10-16T01:45:07.425Z,17.26
2022-10-16T01:47:37.365Z,17.31
2022-10-16T01:50:06.686Z,17.43
2022-10-16T01:52:37.039Z,17.44
2022-10-16T01:55:08.388Z,17.32
2022-10-16T01:57:40.163Z,17.04
2022-10-16T02:00:12.384Z,16.61
2022-10-16T02:02:42.991Z,16.76
2022-10-16T02:05:18.846Z,16.57
2022-10-16T02:07:46.435Z,16.34
2022-10-16T02:10:14.087Z,16.21
2022-10-16T02:12:47.971Z,16.51
2022-10-16T02:15:15.563Z,16.43
2022-10-16T02:17:43.102Z,16.54
2022-10-16T02:20:11.752Z,16.45
2022-10-16T02:22:44.863Z,16.63
2022-10-16T02:25:17.223Z,16.81
2022-10-16T02:27:53.408Z,16.66
2022-10-16T02:30:26.724Z,16.72
2022-10-16T02:32:55.699Z,16.79
2022-10-16T02:35:25.403Z,16.75
2022-10-16T02:37:54.215Z,16.60
2022-10-16T02:40:24.487Z,16.73
2022-10-16T02:42:55.968Z,16.76
2022-10-16T02:45:24.157Z,16.59
2022-10-16T02:47:51.663Z,16.93
2022-10-16T02:50:19.325Z,16.85
2022-10-16T02:52:46.828Z,17.14
2022-10-16T02:55:14.412Z,17.01
2022-10-16T02:57:42.156Z,17.27
2022-10-16T03:00:14.593Z,17.35
2022-10-16T03:02:42.948Z,17.26
2022-10-16T03:05:11.634Z,17.29
2022-10-16T03:07:39.691Z,17.25
2022-10-16T03:10:08.224Z,17.28
2022-10-16T03:12:35.744Z,17.27
2022-10-16T03:15:03.335Z,17.29
2022-10-16T03:17:33.772Z,17.32
2022-10-16T03:20:01.313Z,17.35
2022-10-16T03:22:28.824Z,17.21
2022-10-16T03:24:56.345Z,17.12
2022-10-16T03:27:24.109Z,17.17
2022-10-16T03:29:51.883Z,17.27
2022-10-16T03:32:19.379Z,17.37
2022-10-16T03:34:48.255Z,17.35
2022-10-16T03:37:15.791Z,17.23
2022-10-16T03:39:43.315Z,17.37
2022-10-16T03:42:10.827Z,17.52
2022-10-16T03:44:38.347Z,17.51
2022-10-16T03:47:05.855Z,17.49
2022-10-16T03:49:33.375Z,17.57
2022-10-16T03:52:02.440Z,17.39
2022-10-16T03:54:29.952Z,17.30
2022-10-16T03:56:57.450Z,17.21
2022-10-16T03:59:25.072Z,17.25
2022-10-16T04:01:52.572Z,17.24
2022-10-16T04:04:20.316Z,17.22
2022-10-16T04:06:47.812Z,17.19
2022-10-16T04:09:16.759Z,17.22
2022-10-16T04:11:44.597Z,17.17
2022-10-16T04:14:12.393Z,17.09
2022-10-16T04:16:39.892Z,17.00
2022-10-16T04:19:07.375Z,17.12
2022-10-16T04:21:34.889Z,16.95
2022-10-16T04:24:02.411Z,16.77
2022-10-16T04:26:31.396Z,16.57
2022-10-16T04:28:59.152Z,15.97
2022-10-16T04:31:26.922Z,15.87
2022-10-16T04:33:54.428Z,15.95
2022-10-16T04:36:24.255Z,15.76
2022-10-16T04:38:54.324Z,16.19
2022-10-16T04:41:21.845Z,16.36
2022-10-16T04:43:50.688Z,16.58
2022-10-16T04:46:18.208Z,16.37
2022-10-16T04:48:45.916Z,16.06
2022-10-16T04:51:13.429Z,16.06
2022-10-16T04:53:40.979Z,16.04
2022-10-16T04:56:08.619Z,16.42
2022-10-16T04:58:36.125Z,16.14
2022-10-16T05:01:05.192Z,16.07
2022-10-16T05:03:32.711Z,16.06
2022-10-16T05:06:00.253Z,16.21
2022-10-16T05:08:27.759Z,16.01
2022-10-16T05:10:55.307Z,16.06
2022-10-16T05:13:24.116Z,15.96
2022-10-16T05:15:52.068Z,15.97
2022-10-16T05:18:20.940Z,15.77
2022-10-16T05:20:48.459Z,15.66
2022-10-16T05:23:16.015Z,15.54
2022-10-16T05:25:43.530Z,15.66
2022-10-16T05:28:11.044Z,15.74
2022-10-16T05:30:39.405Z,15.77
2022-10-16T05:33:06.908Z,15.81
2022-10-16T05:35:35.959Z,15.63
2022-10-16T05:38:03.460Z,15.63
2022-10-16T05:40:30.972Z,16.28
2022-10-16T05:42:58.491Z,16.47
2022-10-16T05:45:26.014Z,16.65
2022-10-16T05:47:53.539Z,16.84
2022-10-16T05:50:21.106Z,16.45
2022-10-16T05:52:49.954Z,16.12
2022-10-16T05:55:17.552Z,15.92
2022-10-16T05:57:45.158Z,15.95
2022-10-16T06:00:13.183Z,15.76
2022-10-16T06:02:40.794Z,15.65
2022-10-16T06:05:08.640Z,15.55
2022-10-16T06:07:36.785Z,15.59
2022-10-16T06:10:07.005Z,15.55
2022-10-16T06:12:34.506Z,15.54
2022-10-16T06:15:02.042Z,15.47
2022-10-16T06:17:29.610Z,15.46
2022-10-16T06:19:57.269Z,15.49
2022-10-16T06:22:24.807Z,15.62
2022-10-16T06:24:52.330Z,15.62
2022-10-16T06:27:21.201Z,15.72
2022-10-16T06:29:48.678Z,15.96
2022-10-16T06:32:16.183Z,16.11
2022-10-16T06:34:44.271Z,16.01
2022-10-16T06:37:11.841Z,16.29
2022-10-16T06:39:39.885Z,16.44
2022-10-16T06:42:07.396Z,16.43
2022-10-16T06:44:36.252Z,16.57
2022-10-16T06:47:04.703Z,16.54
2022-10-16T06:49:32.246Z,16.53
2022-10-16T06:51:59.808Z,16.99
2022-10-16T06:54:27.725Z,17.06
2022-10-16T06:56:55.468Z,17.12
2022-10-16T06:59:23.027Z,17.45
2022-10-16T07:01:51.884Z,17.60
2022-10-16T07:04:19.643Z,17.75
2022-10-16T07:06:47.157Z,17.45
2022-10-16T07:09:14.696Z,17.55
2022-10-16T07:11:42.780Z,17.65
2022-10-16T07:14:17.417Z,17.27
2022-10-16T07:16:44.987Z,17.27
2022-10-16T07:19:15.755Z,17.59
2022-10-16T07:21:43.571Z,17.64
2022-10-16T07:24:14.777Z,17.78
2022-10-16T07:26:43.239Z,18.25
2022-10-16T07:29:15.744Z,18.89
2022-10-16T07:31:43.986Z,19.42
2022-10-16T07:34:12.147Z,19.47
2022-10-16T07:39:13.511Z,20.73
2022-10-16T07:41:41.036Z,21.38
2022-10-16T07:44:08.919Z,21.71
2022-10-16T07:46:37.422Z,21.87
2022-10-16T07:49:04.967Z,21.34
2022-10-16T07:51:32.621Z,21.24
2022-10-16T07:54:01.504Z,21.55
2022-10-16T07:56:29.033Z,20.88
2022-10-16T07:58:57.395Z,20.57
2022-10-16T08:01:24.984Z,20.57
2022-10-16T08:03:53.673Z,21.38
2022-10-16T08:06:26.914Z,21.93
2022-10-16T08:08:56.309Z,23.63
2022-10-16T08:11:25.605Z,25.36
2022-10-16T08:13:53.225Z,26.27
2022-10-16T08:16:20.769Z,25.63
2022-10-16T08:18:48.347Z,25.48
2022-10-16T08:21:20.406Z,24.21
2022-10-16T08:23:52.991Z,22.98
2022-10-16T08:26:28.234Z,22.67
2022-10-16T08:28:56.412Z,21.98
2022-10-16T08:31:24.159Z,21.23
2022-10-16T08:33:53.062Z,21.43
2022-10-16T08:36:20.614Z,21.37
2022-10-16T08:38:50.113Z,22.39
2022-10-16T08:41:32.838Z,22.83
2022-10-16T08:44:26.836Z,23.93
2022-10-16T08:47:04.852Z,23.63
2022-10-16T08:49:33.098Z,22.96
2022-10-16T08:52:01.121Z,22.34
2022-10-16T08:54:34.871Z,21.16
2022-10-16T08:57:11.463Z,20.26
2022-10-16T08:59:39.070Z,20.04
2022-10-16T09:02:25.676Z,19.92
2022-10-16T09:05:02.179Z,19.56
2022-10-16T09:07:35.812Z,19.51
2022-10-16T09:10:20.540Z,19.96
2022-10-16T09:12:56.080Z,20.32
2022-10-16T09:15:34.088Z,20.01
2022-10-16T09:18:07.168Z,20.12
2022-10-16T09:20:44.355Z,20.87
2022-10-16T09:23:17.911Z,21.41
2022-10-16T09:25:48.578Z,21.63
2022-10-16T09:28:17.983Z,22.31
2022-10-16T09:30:46.561Z,23.10
2022-10-16T09:33:15.504Z,24.00
2022-10-16T09:35:45.998Z,24.58
2022-10-16T09:38:26.285Z,25.00
2022-10-16T09:40:58.858Z,24.73
2022-10-16T09:43:40.991Z,24.19
2022-10-16T09:46:10.838Z,24.00
2022-10-16T09:48:41.367Z,24.43
2022-10-16T09:51:20.596Z,24.82
2022-10-16T09:53:49.843Z,25.14
2022-10-16T09:56:24.573Z,25.68
2022-10-16T09:58:55.063Z,26.24
2022-10-16T10:01:24.540Z,26.75
2022-10-16T10:03:53.701Z,26.70
2022-10-16T10:06:25.807Z,25.74
2022-10-16T10:09:03.764Z,25.71
2022-10-16T10:11:50.765Z,25.89
2022-10-16T10:14:37.026Z,26.58
2022-10-16T10:17:17.302Z,27.01
2022-10-16T10:19:49.597Z,27.14
2022-10-16T10:22:27.010Z,27.39
2022-10-16T10:25:19.468Z,27.30
2022-10-16T10:28:02.429Z,27.08
2022-10-16T10:30:39.200Z,27.04
2022-10-16T10:33:20.742Z,26.98
2022-10-16T10:35:57.509Z,26.64
2022-10-16T10:38:36.743Z,26.13
2022-10-16T10:41:18.087Z,26.27
2022-10-16T10:43:57.735Z,26.03
2022-10-16T10:46:34.173Z,25.52
2022-10-16T10:49:22.623Z,25.19
2022-10-16T10:52:01.380Z,24.95
2022-10-16T10:54:37.840Z,25.19
2022-10-16T10:57:11.684Z,25.62
2022-10-16T11:00:18.231Z,25.91
2022-10-16T11:02:54.133Z,25.74
2022-10-16T11:05:33.045Z,25.56
2022-10-16T11:08:02.788Z,25.45
2022-10-16T11:10:36.517Z,25.39
2022-10-16T11:13:16.476Z,24.88
2022-10-16T11:15:46.284Z,25.06
2022-10-16T11:18:21.955Z,25.19
2022-10-16T11:20:55.419Z,25.15
2022-10-16T11:23:28.135Z,25.03
2022-10-16T11:26:01.332Z,25.07
2022-10-16T11:28:34.609Z,24.31
2022-10-16T11:31:06.959Z,24.24
2022-10-16T11:33:41.862Z,24.11
2022-10-16T11:36:16.098Z,24.20
2022-10-16T11:38:49.174Z,24.45
2022-10-16T11:41:25.788Z,25.32
2022-10-16T11:44:07.539Z,26.07
2022-10-16T11:46:52.568Z,26.23
2022-10-16T11:49:32.357Z,27.13
2022-10-16T11:52:10.730Z,27.35
2022-10-16T11:54:47.392Z,26.45
2022-10-16T11:57:19.419Z,25.86
2022-10-16T11:59:53.491Z,25.67
2022-10-16T12:02:40.525Z,26.00
2022-10-16T12:05:24.054Z,26.85
2022-10-16T12:08:02.213Z,27.78
2022-10-16T12:10:32.969Z,27.42
2022-10-16T12:13:00.695Z,27.53
2022-10-16T12:15:47.447Z,27.83
2022-10-16T12:18:24.252Z,28.07
2022-10-16T12:21:00.297Z,27.37
2022-10-16T12:23:28.188Z,26.65
2022-10-16T12:25:56.993Z,26.71
2022-10-16T12:28:29.716Z,26.94
2022-10-16T12:30:59.645Z,26.63
2022-10-16T12:33:29.032Z,25.66
2022-10-16T12:35:59.129Z,25.85
2022-10-16T12:38:29.857Z,25.37
2022-10-16T12:41:01.832Z,25.09
2022-10-16T12:43:39.161Z,25.73
2022-10-16T12:46:24.239Z,25.17
2022-10-16T12:49:08.335Z,24.40
2022-10-16T12:51:39.107Z,24.36
2022-10-16T12:54:14.396Z,24.30
2022-10-16T12:56:57.472Z,25.01
2022-10-16T12:59:34.674Z,25.86
2022-10-16T13:02:28.288Z,26.79
2022-10-16T13:05:15.646Z,27.74
2022-10-16T13:07:58.282Z,28.36
2022-10-16T13:10:30.717Z,28.45
2022-10-16T13:13:15.812Z,28.30
2022-10-16T13:15:54.099Z,28.67
2022-10-16T13:18:27.490Z,28.29
2022-10-16T13:21:07.983Z,28.61
2022-10-16T13:26:25.052Z,29.49
2022-10-16T13:28:52.678Z,29.69
2022-10-16T13:31:23.731Z,28.64
2022-10-16T13:33:55.650Z,28.27
2022-10-16T13:36:24.922Z,29.04
2022-10-16T13:39:11.670Z,29.59
2022-10-16T13:41:39.329Z,29.51
2022-10-16T13:44:13.101Z,29.09
2022-10-16T13:46:40.624Z,28.25
2022-10-16T13:49:14.972Z,28.49
2022-10-16T13:51:42.626Z,29.26
2022-10-16T13:54:13.327Z,28.65
2022-10-16T13:56:42.165Z,28.36
2022-10-16T13:59:26.916Z,28.50
2022-10-16T14:01:56.691Z,28.92
2022-10-16T14:04:25.437Z,29.43
2022-10-16T14:06:53.535Z,29.66
2022-10-16T14:09:27.506Z,29.92
2022-10-16T14:11:58.727Z,29.54
2022-10-16T14:14:28.981Z,29.12
2022-10-16T14:16:56.835Z,29.38
2022-10-16T14:19:27.215Z,29.73
2022-10-16T14:21:55.320Z,28.19
2022-10-16T14:24:32.987Z,27.37
2022-10-16T14:27:01.114Z,26.68
2022-10-16T14:29:32.237Z,25.75
2022-10-16T14:32:01.893Z,25.44
2022-10-16T14:34:33.705Z,24.86
2022-10-16T14:37:10.831Z,24.88
2022-10-16T14:39:39.739Z,24.95
2022-10-16T14:42:16.907Z,24.72
2022-10-16T14:44:44.552Z,25.12
2022-10-16T14:47:17.764Z,24.85
2022-10-16T14:49:45.296Z,24.68
2022-10-16T14:52:13.940Z,24.73
2022-10-16T14:54:43.328Z,24.66
2022-10-16T14:57:19.232Z,24.70
2022-10-16T14:59:48.112Z,24.27
2022-10-16T15:02:24.682Z,24.27
2022-10-16T15:04:52.282Z,24.21
2022-10-16T15:07:19.815Z,24.55
2022-10-16T15:09:49.457Z,24.57
2022-10-16T15:12:17.637Z,24.62
2022-10-16T15:14:45.188Z,24.93
2022-10-16T15:17:14.621Z,24.68
2022-10-16T15:19:44.059Z,24.45
2022-10-16T15:22:13.111Z,24.42
2022-10-16T15:24:40.672Z,24.37
2022-10-16T15:27:09.519Z,24.35
2022-10-16T15:29:37.047Z,24.13
2022-10-16T15:32:04.841Z,24.23
2022-10-16T15:34:32.341Z,24.07
2022-10-16T15:37:00.743Z,23.76
2022-10-16T15:39:28.246Z,23.71
2022-10-16T15:41:55.794Z,23.48
2022-10-16T15:44:27.031Z,23.52
2022-10-16T15:46:56.583Z,23.31
2022-10-16T15:49:24.395Z,23.27
2022-10-16T15:51:53.735Z,23.12
2022-10-16T15:54:22.728Z,22.87
2022-10-16T15:56:50.277Z,22.83
2022-10-16T15:59:17.792Z,22.84
2022-10-16T16:01:46.699Z,22.49
2022-10-16T16:04:31.880Z,22.01
2022-10-16T16:07:02.107Z,22.04
2022-10-16T16:09:30.924Z,21.88
2022-10-16T16:12:01.314Z,21.68
2022-10-16T16:14:29.695Z,21.62
2022-10-16T16:16:59.187Z,21.50
2022-10-16T16:19:26.810Z,21.38
2022-10-16T16:21:54.380Z,21.26
2022-10-16T16:24:21.903Z,21.13
2022-10-16T16:26:49.481Z,21.00
2022-10-16T16:29:18.103Z,20.96
2022-10-16T16:31:47.941Z,20.89
2022-10-16T16:34:17.135Z,20.83
2022-10-16T16:36:44.648Z,20.79
2022-10-16T16:39:12.391Z,20.77
2022-10-16T16:41:39.928Z,20.63
2022-10-16T16:44:10.278Z,20.50
2022-10-16T16:46:38.111Z,20.42
2022-10-16T16:49:05.700Z,20.25
2022-10-16T16:51:38.313Z,20.16
2022-10-16T16:54:09.171Z,20.02
2022-10-16T16:56:36.798Z,19.94
2022-10-16T16:59:04.903Z,19.85
2022-10-16T17:01:32.827Z,19.79
2022-10-16T17:04:03.057Z,19.66
2022-10-16T17:06:31.427Z,19.72
2022-10-16T17:09:03.411Z,19.69
2022-10-16T17:11:31.992Z,19.57
2022-10-16T17:14:00.951Z,19.38
2022-10-16T17:16:31.838Z,19.36
2022-10-16T17:19:02.153Z,19.37
2022-10-16T17:21:30.619Z,19.33
2022-10-16T17:23:58.579Z,19.36
2022-10-16T17:26:27.712Z,19.35
2022-10-16T17:28:57.024Z,19.32
2022-10-16T17:31:26.498Z,19.27
2022-10-16T17:33:54.119Z,19.32
2022-10-16T17:36:23.047Z,19.28
2022-10-16T17:38:50.739Z,19.41
2022-10-16T17:41:20.700Z,19.46
2022-10-16T17:43:49.847Z,19.58
2022-10-16T17:46:19.264Z,19.53
2022-10-16T17:48:49.424Z,19.51
2022-10-16T17:51:19.904Z,19.57
2022-10-16T17:53:49.589Z,19.62
2022-10-16T17:56:17.248Z,19.64
2022-10-16T17:58:47.704Z,19.14
2022-10-16T18:01:21.918Z,19.35
2022-10-16T18:03:51.152Z,19.36
2022-10-16T18:06:22.920Z,19.39
2022-10-16T18:08:50.998Z,19.53
2022-10-16T18:11:19.012Z,19.95
2022-10-16T18:13:46.699Z,20.14
2022-10-16T18:16:15.549Z,20.15
2022-10-16T18:18:45.713Z,20.14
2022-10-16T18:21:15.267Z,20.26
2022-10-16T18:23:47.685Z,20.18
2022-10-16T18:26:20.334Z,20.02
2022-10-16T18:28:48.383Z,19.95
2022-10-16T18:31:18.408Z,20.03
2022-10-16T18:33:50.445Z,20.25
2022-10-16T18:36:20.769Z,20.26
2022-10-16T18:38:48.517Z,20.39
2022-10-16T18:41:16.322Z,20.39
2022-10-16T18:43:43.941Z,20.13
2022-10-16T18:46:13.378Z,19.74
2022-10-16T18:48:41.932Z,19.72
2022-10-16T18:51:14.498Z,19.77
2022-10-16T18:53:43.585Z,19.68
2022-10-16T18:56:12.125Z,19.73
2022-10-16T18:58:41.461Z,19.54
2022-10-16T19:01:11.338Z,19.48
2022-10-16T19:03:44.820Z,19.58
2022-10-16T19:06:16.302Z,19.51
2022-10-16T19:08:44.288Z,19.45
2022-10-16T19:11:13.783Z,19.36
2022-10-16T19:13:41.742Z,19.33
2022-10-16T19:16:21.263Z,19.28
2022-10-16T19:18:49.943Z,19.39
2022-10-16T19:21:19.612Z,19.48
2022-10-16T19:23:47.417Z,19.39
2022-10-16T19:26:17.434Z,19.40
2022-10-16T19:28:45.461Z,19.24
2022-10-16T19:31:14.942Z,19.28
2022-10-16T19:33:42.988Z,19.24
2022-10-16T19:36:16.397Z,19.05
2022-10-16T19:38:46.586Z,19.14
2022-10-16T19:41:15.812Z,19.12
2022-10-16T19:43:43.719Z,18.97
2022-10-16T19:46:13.381Z,18.91
2022-10-16T19:48:41.292Z,18.94
2022-10-16T19:51:11.982Z,18.87
2022-10-16T19:53:39.518Z,18.78
2022-10-16T19:56:15.098Z,19.08
2022-10-16T19:58:43.439Z,18.94
2022-10-16T20:01:11.257Z,19.00
2022-10-16T20:03:39.919Z,19.06
2022-10-16T20:06:09.142Z,19.07
2022-10-16T20:08:38.542Z,19.26
2022-10-16T20:11:07.696Z,19.46
2022-10-16T20:13:39.882Z,19.71
2022-10-16T20:16:10.962Z,20.02
2022-10-16T20:18:38.677Z,19.79
2022-10-16T20:21:10.544Z,19.50
2022-10-16T20:23:38.107Z,19.27
2022-10-16T20:26:05.714Z,19.26
2022-10-16T20:28:33.711Z,19.05
2022-10-16T20:31:07.569Z,18.95
2022-10-16T20:33:35.236Z,18.74
2022-10-16T20:36:02.763Z,18.68
2022-10-16T20:38:30.332Z,18.64
2022-10-16T20:41:04.227Z,18.73
2022-10-16T20:43:31.945Z,18.88
2022-10-16T20:46:02.278Z,18.87
2022-10-16T20:48:30.016Z,18.72
2022-10-16T20:50:59.437Z,18.90
2022-10-16T20:53:27.719Z,18.93
2022-10-16T20:55:55.220Z,19.00
2022-10-16T20:58:22.739Z,18.98
2022-10-16T21:00:50.238Z,18.91
2022-10-16T21:03:19.161Z,19.12
2022-10-16T21:05:46.656Z,18.93
2022-10-16T21:08:14.180Z,19.24
2022-10-16T21:10:41.675Z,19.10
2022-10-16T21:13:09.184Z,19.29
2022-10-16T21:15:37.845Z,19.29
2022-10-16T21:18:05.453Z,19.01
2022-10-16T21:20:34.394Z,18.99
2022-10-16T21:23:03.281Z,18.98
2022-10-16T21:25:30.794Z,19.07
2022-10-16T21:27:58.312Z,18.98
2022-10-16T21:30:26.388Z,19.01
2022-10-16T21:32:53.881Z,18.82
2022-10-16T21:35:21.398Z,18.63
2022-10-16T21:37:50.835Z,18.43
2022-10-16T21:40:18.480Z,18.45
2022-10-16T21:42:46.021Z,18.23
2022-10-16T21:45:13.625Z,18.27
2022-10-16T21:47:41.183Z,18.49
2022-10-16T21:50:09.397Z,18.62
2022-10-16T21:52:36.897Z,18.61
2022-10-16T21:55:06.595Z,18.53
2022-10-16T21:57:36.030Z,18.39
2022-10-16T22:00:06.822Z,18.19
2022-10-16T22:02:36.532Z,18.05
2022-10-16T22:05:04.271Z,17.92
2022-10-16T22:07:31.800Z,17.77
2022-10-16T22:09:59.361Z,17.47
2022-10-16T22:12:29.962Z,17.39
2022-10-16T22:14:57.503Z,17.42
2022-10-16T22:17:25.303Z,17.39
2022-10-16T22:19:53.003Z,17.32
2022-10-16T22:22:20.501Z,17.31
2022-10-16T22:24:48.031Z,17.26
2022-10-16T22:27:15.608Z,17.27
2022-10-16T22:29:44.452Z,16.98
2022-10-16T22:32:12.013Z,16.67
2022-10-16T22:34:39.508Z,16.47
2022-10-16T22:37:07.029Z,16.57
2022-10-16T22:39:34.680Z,16.26
2022-10-16T22:42:03.511Z,16.81
2022-10-16T22:44:31.079Z,16.83
2022-10-16T22:47:00.064Z,16.92
2022-10-16T22:49:27.647Z,16.90
2022-10-16T22:51:55.166Z,16.82
2022-10-16T22:54:22.704Z,16.75
2022-10-16T22:56:50.235Z,16.71
2022-10-16T22:59:17.748Z,16.61
2022-10-16T23:01:45.335Z,16.53
2022-10-16T23:04:14.248Z,16.60
2022-10-16T23:06:41.776Z,16.67
2022-10-16T23:09:11.141Z,16.63
2022-10-16T23:11:38.749Z,16.49
2022-10-16T23:14:06.533Z,16.51
2022-10-16T23:16:34.065Z,16.52
2022-10-16T23:19:01.681Z,16.41
2022-10-16T23:21:30.630Z,16.44
2022-10-16T23:23:58.132Z,16.54
2022-10-16T23:26:27.050Z,16.55
2022-10-16T23:28:57.752Z,16.54
2022-10-16T23:31:25.473Z,16.52
2022-10-16T23:33:53.116Z,16.42
2022-10-16T23:36:22.380Z,16.27
2022-10-16T23:38:52.199Z,16.39
2022-10-16T23:41:20.931Z,16.46
2022-10-16T23:43:49.037Z,16.53
2022-10-16T23:46:16.833Z,16.45
2022-10-16T23:48:44.458Z,16.39
2022-10-16T23:51:12.217Z,16.32
2022-10-16T23:53:39.955Z,16.30
2022-10-16T23:56:09.376Z,16.33
2022-10-16T23:58:37.323Z,16.27
